sensor_id;sensor_type;location;lat;lon;timestamp;P1;durP1;ratioP1;P2;durP2;ratioP2
4555;SDS011;2290;48.674;9.018;2023-11-19T00:01:40;3.17;;;2.17;;
4555;SDS011;2290;48.674;9.018;2023-11-19T00:04:05;2.90;;;2.10;;
4555;SDS011;2290;48.674;9.018;2023-11-19T00:06:31;2.20;;;1.90;;
4555;SDS011;2290;48.674;9.018;2023-11-19T00:08:56;2.77;;;2.10;;
4555;SDS011;2290;48.674;9.018;2023-11-19T00:11:22;2.30;;;2.10;;
4555;SDS011;2290;48.674;9.018;2023-11-19T00:13:47;2.50;;;2.30;;
4555;SDS011;2290;48.674;9.018;2023-11-19T00:16:13;4.10;;;2.40;;
4555;SDS011;2290;48.674;9.018;2023-11-19T00:18:39;3.27;;;2.50;;
4555;SDS011;2290;48.674;9.018;2023-11-19T00:21:05;3.50;;;2.37;;
4555;SDS011;2290;48.674;9.018;2023-11-19T00:23:30;2.70;;;2.20;;
4555;SDS011;2290;48.674;9.018;2023-11-19T00:25:57;2.83;;;2.10;;
4555;SDS011;2290;48.674;9.018;2023-11-19T00:28:24;2.67;;;2.03;;
4555;SDS011;2290;48.674;9.018;2023-11-19T00:30:50;2.30;;;2.10;;
4555;SDS011;2290;48.674;9.018;2023-11-19T00:33:15;3.70;;;2.63;;
4555;SDS011;2290;48.674;9.018;2023-11-19T00:35:41;2.43;;;2.00;;
4555;SDS011;2290;48.674;9.018;2023-11-19T00:38:08;2.10;;;1.90;;
4555;SDS011;2290;48.674;9.018;2023-11-19T00:40:33;2.23;;;2.00;;
4555;SDS011;2290;48.674;9.018;2023-11-19T00:42:59;2.60;;;1.87;;
4555;SDS011;2290;48.674;9.018;2023-11-19T00:45:26;1.60;;;1.50;;
4555;SDS011;2290;48.674;9.018;2023-11-19T00:47:52;1.63;;;1.50;;
4555;SDS011;2290;48.674;9.018;2023-11-19T00:50:17;1.50;;;1.40;;
4555;SDS011;2290;48.674;9.018;2023-11-19T00:52:43;2.40;;;1.73;;
4555;SDS011;2290;48.674;9.018;2023-11-19T00:55:08;1.83;;;1.60;;
4555;SDS011;2290;48.674;9.018;2023-11-19T00:57:34;1.80;;;1.60;;
4555;SDS011;2290;48.674;9.018;2023-11-19T01:00:02;1.50;;;1.40;;
4555;SDS011;2290;48.674;9.018;2023-11-19T01:02:34;1.10;;;1.00;;
4555;SDS011;2290;48.674;9.018;2023-11-19T01:04:59;1.43;;;1.33;;
4555;SDS011;2290;48.674;9.018;2023-11-19T01:07:25;1.30;;;1.20;;
4555;SDS011;2290;48.674;9.018;2023-11-19T01:09:52;1.70;;;1.33;;
4555;SDS011;2290;48.674;9.018;2023-11-19T01:12:17;1.57;;;1.23;;
4555;SDS011;2290;48.674;9.018;2023-11-19T01:14:43;2.13;;;1.50;;
4555;SDS011;2290;48.674;9.018;2023-11-19T01:17:09;1.50;;;1.30;;
4555;SDS011;2290;48.674;9.018;2023-11-19T01:19:35;2.33;;;1.47;;
4555;SDS011;2290;48.674;9.018;2023-11-19T01:22:02;3.03;;;1.43;;
4555;SDS011;2290;48.674;9.018;2023-11-19T01:24:28;1.80;;;1.60;;
4555;SDS011;2290;48.674;9.018;2023-11-19T01:26:56;1.93;;;1.40;;
4555;SDS011;2290;48.674;9.018;2023-11-19T01:29:22;1.90;;;1.40;;
4555;SDS011;2290;48.674;9.018;2023-11-19T01:31:48;1.77;;;1.63;;
4555;SDS011;2290;48.674;9.018;2023-11-19T01:34:16;2.17;;;1.67;;
4555;SDS011;2290;48.674;9.018;2023-11-19T01:36:41;1.80;;;1.70;;
4555;SDS011;2290;48.674;9.018;2023-11-19T01:39:07;1.87;;;1.67;;
4555;SDS011;2290;48.674;9.018;2023-11-19T01:41:36;1.70;;;1.60;;
4555;SDS011;2290;48.674;9.018;2023-11-19T01:44:04;4.30;;;1.77;;
4555;SDS011;2290;48.674;9.018;2023-11-19T01:46:31;3.33;;;1.40;;
4555;SDS011;2290;48.674;9.018;2023-11-19T01:49:01;2.40;;;1.20;;
4555;SDS011;2290;48.674;9.018;2023-11-19T01:51:27;1.50;;;1.17;;
4555;SDS011;2290;48.674;9.018;2023-11-19T01:53:53;1.47;;;1.03;;
4555;SDS011;2290;48.674;9.018;2023-11-19T01:56:20;1.20;;;0.90;;
4555;SDS011;2290;48.674;9.018;2023-11-19T01:58:47;1.10;;;1.00;;
4555;SDS011;2290;48.674;9.018;2023-11-19T02:01:14;1.00;;;0.90;;
4555;SDS011;2290;48.674;9.018;2023-11-19T02:03:40;1.50;;;0.80;;
4555;SDS011;2290;48.674;9.018;2023-11-19T02:06:06;0.80;;;0.80;;
4555;SDS011;2290;48.674;9.018;2023-11-19T02:08:32;0.80;;;0.70;;
4555;SDS011;2290;48.674;9.018;2023-11-19T02:10:58;1.27;;;0.80;;
4555;SDS011;2290;48.674;9.018;2023-11-19T02:13:25;0.80;;;0.70;;
4555;SDS011;2290;48.674;9.018;2023-11-19T02:15:51;1.07;;;0.97;;
4555;SDS011;2290;48.674;9.018;2023-11-19T02:18:17;0.90;;;0.70;;
4555;SDS011;2290;48.674;9.018;2023-11-19T02:20:48;1.07;;;0.70;;
4555;SDS011;2290;48.674;9.018;2023-11-19T02:23:14;1.93;;;0.70;;
4555;SDS011;2290;48.674;9.018;2023-11-19T02:25:40;0.90;;;0.70;;
4555;SDS011;2290;48.674;9.018;2023-11-19T02:28:07;1.10;;;0.80;;
4555;SDS011;2290;48.674;9.018;2023-11-19T02:30:37;0.90;;;0.70;;
4555;SDS011;2290;48.674;9.018;2023-11-19T02:33:03;0.80;;;0.70;;
4555;SDS011;2290;48.674;9.018;2023-11-19T02:35:30;1.00;;;0.80;;
4555;SDS011;2290;48.674;9.018;2023-11-19T02:37:56;0.80;;;0.70;;
4555;SDS011;2290;48.674;9.018;2023-11-19T02:40:24;0.80;;;0.70;;
4555;SDS011;2290;48.674;9.018;2023-11-19T02:42:50;1.00;;;0.87;;
4555;SDS011;2290;48.674;9.018;2023-11-19T02:45:17;0.90;;;0.70;;
4555;SDS011;2290;48.674;9.018;2023-11-19T02:47:43;0.80;;;0.70;;
4555;SDS011;2290;48.674;9.018;2023-11-19T02:50:10;1.00;;;0.90;;
4555;SDS011;2290;48.674;9.018;2023-11-19T02:52:43;1.00;;;0.70;;
4555;SDS011;2290;48.674;9.018;2023-11-19T02:55:11;0.80;;;0.70;;
4555;SDS011;2290;48.674;9.018;2023-11-19T02:57:40;1.47;;;1.00;;
4555;SDS011;2290;48.674;9.018;2023-11-19T03:00:17;0.80;;;0.70;;
4555;SDS011;2290;48.674;9.018;2023-11-19T03:02:48;0.80;;;0.70;;
4555;SDS011;2290;48.674;9.018;2023-11-19T03:05:23;1.47;;;0.80;;
4555;SDS011;2290;48.674;9.018;2023-11-19T03:07:49;1.00;;;0.70;;
4555;SDS011;2290;48.674;9.018;2023-11-19T03:10:15;1.03;;;0.77;;
4555;SDS011;2290;48.674;9.018;2023-11-19T03:12:41;1.00;;;0.70;;
4555;SDS011;2290;48.674;9.018;2023-11-19T03:15:07;0.97;;;0.70;;
4555;SDS011;2290;48.674;9.018;2023-11-19T03:17:35;0.90;;;0.80;;
4555;SDS011;2290;48.674;9.018;2023-11-19T03:20:02;0.80;;;0.70;;
4555;SDS011;2290;48.674;9.018;2023-11-19T03:22:31;1.10;;;0.80;;
4555;SDS011;2290;48.674;9.018;2023-11-19T03:24:59;0.80;;;0.70;;
4555;SDS011;2290;48.674;9.018;2023-11-19T03:27:24;1.13;;;0.80;;
4555;SDS011;2290;48.674;9.018;2023-11-19T03:29:50;0.80;;;0.70;;
4555;SDS011;2290;48.674;9.018;2023-11-19T03:32:15;1.00;;;0.70;;
4555;SDS011;2290;48.674;9.018;2023-11-19T03:34:41;0.80;;;0.60;;
4555;SDS011;2290;48.674;9.018;2023-11-19T03:37:06;0.80;;;0.70;;
4555;SDS011;2290;48.674;9.018;2023-11-19T03:39:32;1.00;;;0.80;;
4555;SDS011;2290;48.674;9.018;2023-11-19T03:41:58;0.90;;;0.80;;
4555;SDS011;2290;48.674;9.018;2023-11-19T03:44:23;1.37;;;0.70;;
4555;SDS011;2290;48.674;9.018;2023-11-19T03:46:51;0.80;;;0.70;;
4555;SDS011;2290;48.674;9.018;2023-11-19T03:49:17;1.63;;;0.77;;
4555;SDS011;2290;48.674;9.018;2023-11-19T03:51:42;0.93;;;0.70;;
4555;SDS011;2290;48.674;9.018;2023-11-19T03:54:08;0.80;;;0.70;;
4555;SDS011;2290;48.674;9.018;2023-11-19T03:56:36;0.80;;;0.60;;
4555;SDS011;2290;48.674;9.018;2023-11-19T03:59:02;0.90;;;0.70;;
4555;SDS011;2290;48.674;9.018;2023-11-19T04:01:28;1.20;;;0.80;;
4555;SDS011;2290;48.674;9.018;2023-11-19T04:03:53;0.90;;;0.70;;
4555;SDS011;2290;48.674;9.018;2023-11-19T04:06:21;0.80;;;0.60;;
4555;SDS011;2290;48.674;9.018;2023-11-19T04:08:47;1.00;;;0.70;;
4555;SDS011;2290;48.674;9.018;2023-11-19T04:11:12;0.80;;;0.60;;
4555;SDS011;2290;48.674;9.018;2023-11-19T04:13:38;1.30;;;0.70;;
4555;SDS011;2290;48.674;9.018;2023-11-19T04:16:03;0.90;;;0.60;;
4555;SDS011;2290;48.674;9.018;2023-11-19T04:18:29;0.90;;;0.70;;
4555;SDS011;2290;48.674;9.018;2023-11-19T04:20:55;0.90;;;0.60;;
4555;SDS011;2290;48.674;9.018;2023-11-19T04:23:21;0.80;;;0.60;;
4555;SDS011;2290;48.674;9.018;2023-11-19T04:25:46;0.90;;;0.70;;
4555;SDS011;2290;48.674;9.018;2023-11-19T04:28:12;0.90;;;0.60;;
4555;SDS011;2290;48.674;9.018;2023-11-19T04:30:37;0.80;;;0.60;;
4555;SDS011;2290;48.674;9.018;2023-11-19T04:33:03;1.77;;;0.77;;
4555;SDS011;2290;48.674;9.018;2023-11-19T04:35:29;0.90;;;0.70;;
4555;SDS011;2290;48.674;9.018;2023-11-19T04:37:54;1.30;;;0.70;;
4555;SDS011;2290;48.674;9.018;2023-11-19T04:40:22;0.90;;;0.77;;
4555;SDS011;2290;48.674;9.018;2023-11-19T04:42:48;0.83;;;0.70;;
4555;SDS011;2290;48.674;9.018;2023-11-19T04:45:13;0.80;;;0.70;;
4555;SDS011;2290;48.674;9.018;2023-11-19T04:47:41;0.80;;;0.70;;
4555;SDS011;2290;48.674;9.018;2023-11-19T04:50:07;0.80;;;0.70;;
4555;SDS011;2290;48.674;9.018;2023-11-19T04:52:36;0.90;;;0.73;;
4555;SDS011;2290;48.674;9.018;2023-11-19T04:55:05;0.80;;;0.60;;
4555;SDS011;2290;48.674;9.018;2023-11-19T04:57:31;1.47;;;0.80;;
4555;SDS011;2290;48.674;9.018;2023-11-19T04:59:57;1.10;;;0.80;;
4555;SDS011;2290;48.674;9.018;2023-11-19T05:02:23;0.80;;;0.70;;
4555;SDS011;2290;48.674;9.018;2023-11-19T05:04:49;1.00;;;0.80;;
4555;SDS011;2290;48.674;9.018;2023-11-19T05:07:14;1.03;;;0.90;;
4555;SDS011;2290;48.674;9.018;2023-11-19T05:09:40;1.00;;;0.80;;
4555;SDS011;2290;48.674;9.018;2023-11-19T05:12:05;0.90;;;0.80;;
4555;SDS011;2290;48.674;9.018;2023-11-19T05:14:34;1.10;;;1.00;;
4555;SDS011;2290;48.674;9.018;2023-11-19T05:17:00;1.17;;;0.70;;
4555;SDS011;2290;48.674;9.018;2023-11-19T05:19:26;0.90;;;0.80;;
4555;SDS011;2290;48.674;9.018;2023-11-19T05:21:51;0.97;;;0.80;;
4555;SDS011;2290;48.674;9.018;2023-11-19T05:24:17;0.83;;;0.70;;
4555;SDS011;2290;48.674;9.018;2023-11-19T05:26:43;0.80;;;0.70;;
4555;SDS011;2290;48.674;9.018;2023-11-19T05:29:08;1.00;;;0.80;;
4555;SDS011;2290;48.674;9.018;2023-11-19T05:31:34;1.57;;;0.90;;
4555;SDS011;2290;48.674;9.018;2023-11-19T05:33:59;1.30;;;0.80;;
4555;SDS011;2290;48.674;9.018;2023-11-19T05:36:25;0.90;;;0.60;;
4555;SDS011;2290;48.674;9.018;2023-11-19T05:38:50;0.90;;;0.80;;
4555;SDS011;2290;48.674;9.018;2023-11-19T05:41:16;0.80;;;0.70;;
4555;SDS011;2290;48.674;9.018;2023-11-19T05:43:42;0.80;;;0.70;;
4555;SDS011;2290;48.674;9.018;2023-11-19T05:46:07;0.80;;;0.70;;
4555;SDS011;2290;48.674;9.018;2023-11-19T05:48:33;1.00;;;0.80;;
4555;SDS011;2290;48.674;9.018;2023-11-19T05:50:59;1.00;;;0.70;;
4555;SDS011;2290;48.674;9.018;2023-11-19T05:53:25;0.90;;;0.80;;
4555;SDS011;2290;48.674;9.018;2023-11-19T05:55:50;0.83;;;0.80;;
4555;SDS011;2290;48.674;9.018;2023-11-19T05:58:25;1.20;;;0.80;;
4555;SDS011;2290;48.674;9.018;2023-11-19T06:00:53;0.90;;;0.80;;
4555;SDS011;2290;48.674;9.018;2023-11-19T06:03:19;0.90;;;0.80;;
4555;SDS011;2290;48.674;9.018;2023-11-19T06:05:47;0.80;;;0.70;;
4555;SDS011;2290;48.674;9.018;2023-11-19T06:08:13;1.10;;;0.80;;
4555;SDS011;2290;48.674;9.018;2023-11-19T06:10:40;0.80;;;0.70;;
4555;SDS011;2290;48.674;9.018;2023-11-19T06:13:07;0.80;;;0.73;;
4555;SDS011;2290;48.674;9.018;2023-11-19T06:15:35;0.90;;;0.70;;
4555;SDS011;2290;48.674;9.018;2023-11-19T06:18:01;0.90;;;0.77;;
4555;SDS011;2290;48.674;9.018;2023-11-19T06:20:32;0.80;;;0.70;;
4555;SDS011;2290;48.674;9.018;2023-11-19T06:22:59;1.00;;;0.80;;
4555;SDS011;2290;48.674;9.018;2023-11-19T06:25:26;0.93;;;0.80;;
4555;SDS011;2290;48.674;9.018;2023-11-19T06:27:53;1.10;;;0.83;;
4555;SDS011;2290;48.674;9.018;2023-11-19T06:30:19;1.00;;;0.80;;
4555;SDS011;2290;48.674;9.018;2023-11-19T06:32:46;0.90;;;0.70;;
4555;SDS011;2290;48.674;9.018;2023-11-19T06:35:12;0.90;;;0.70;;
4555;SDS011;2290;48.674;9.018;2023-11-19T06:37:39;0.90;;;0.70;;
4555;SDS011;2290;48.674;9.018;2023-11-19T06:40:05;0.90;;;0.80;;
4555;SDS011;2290;48.674;9.018;2023-11-19T06:42:34;1.57;;;0.80;;
4555;SDS011;2290;48.674;9.018;2023-11-19T06:45:00;2.93;;;0.90;;
4555;SDS011;2290;48.674;9.018;2023-11-19T06:47:27;1.30;;;0.80;;
4555;SDS011;2290;48.674;9.018;2023-11-19T06:49:53;1.67;;;0.80;;
4555;SDS011;2290;48.674;9.018;2023-11-19T06:52:20;1.00;;;0.83;;
4555;SDS011;2290;48.674;9.018;2023-11-19T06:54:45;1.10;;;0.80;;
4555;SDS011;2290;48.674;9.018;2023-11-19T06:57:11;0.97;;;0.87;;
4555;SDS011;2290;48.674;9.018;2023-11-19T06:59:38;1.00;;;0.80;;
4555;SDS011;2290;48.674;9.018;2023-11-19T07:02:04;1.00;;;0.90;;
4555;SDS011;2290;48.674;9.018;2023-11-19T07:04:31;1.00;;;0.70;;
4555;SDS011;2290;48.674;9.018;2023-11-19T07:06:58;0.90;;;0.80;;
4555;SDS011;2290;48.674;9.018;2023-11-19T07:09:24;0.90;;;0.80;;
4555;SDS011;2290;48.674;9.018;2023-11-19T07:11:50;0.97;;;0.77;;
4555;SDS011;2290;48.674;9.018;2023-11-19T07:14:17;0.90;;;0.80;;
4555;SDS011;2290;48.674;9.018;2023-11-19T07:16:43;0.90;;;0.80;;
4555;SDS011;2290;48.674;9.018;2023-11-19T07:19:11;1.80;;;0.83;;
4555;SDS011;2290;48.674;9.018;2023-11-19T07:21:37;0.90;;;0.80;;
4555;SDS011;2290;48.674;9.018;2023-11-19T07:24:09;0.90;;;0.77;;
4555;SDS011;2290;48.674;9.018;2023-11-19T07:26:35;1.43;;;0.83;;
4555;SDS011;2290;48.674;9.018;2023-11-19T07:29:02;0.80;;;0.80;;
4555;SDS011;2290;48.674;9.018;2023-11-19T07:31:28;0.90;;;0.80;;
4555;SDS011;2290;48.674;9.018;2023-11-19T07:33:53;0.93;;;0.80;;
4555;SDS011;2290;48.674;9.018;2023-11-19T07:36:19;0.90;;;0.80;;
4555;SDS011;2290;48.674;9.018;2023-11-19T07:38:46;0.80;;;0.70;;
4555;SDS011;2290;48.674;9.018;2023-11-19T07:41:12;0.90;;;0.70;;
4555;SDS011;2290;48.674;9.018;2023-11-19T07:43:40;0.80;;;0.80;;
4555;SDS011;2290;48.674;9.018;2023-11-19T07:46:13;0.83;;;0.77;;
4555;SDS011;2290;48.674;9.018;2023-11-19T07:48:39;1.00;;;0.70;;
4555;SDS011;2290;48.674;9.018;2023-11-19T07:51:04;1.00;;;0.80;;
4555;SDS011;2290;48.674;9.018;2023-11-19T07:53:30;2.27;;;0.90;;
4555;SDS011;2290;48.674;9.018;2023-11-19T07:55:56;1.20;;;0.77;;
4555;SDS011;2290;48.674;9.018;2023-11-19T07:58:21;0.90;;;0.80;;
4555;SDS011;2290;48.674;9.018;2023-11-19T08:00:47;1.00;;;0.80;;
4555;SDS011;2290;48.674;9.018;2023-11-19T08:03:12;0.80;;;0.70;;
4555;SDS011;2290;48.674;9.018;2023-11-19T08:05:39;1.83;;;1.00;;
4555;SDS011;2290;48.674;9.018;2023-11-19T08:08:06;1.10;;;1.00;;
4555;SDS011;2290;48.674;9.018;2023-11-19T08:10:32;0.90;;;0.70;;
4555;SDS011;2290;48.674;9.018;2023-11-19T08:12:58;2.07;;;1.10;;
4555;SDS011;2290;48.674;9.018;2023-11-19T08:15:23;0.97;;;0.80;;
4555;SDS011;2290;48.674;9.018;2023-11-19T08:17:49;1.00;;;0.90;;
4555;SDS011;2290;48.674;9.018;2023-11-19T08:20:14;1.10;;;0.80;;
4555;SDS011;2290;48.674;9.018;2023-11-19T08:22:40;1.20;;;0.90;;
4555;SDS011;2290;48.674;9.018;2023-11-19T08:25:06;1.90;;;0.80;;
4555;SDS011;2290;48.674;9.018;2023-11-19T08:27:32;1.00;;;0.90;;
4555;SDS011;2290;48.674;9.018;2023-11-19T08:30:00;1.30;;;0.80;;
4555;SDS011;2290;48.674;9.018;2023-11-19T08:32:25;0.83;;;0.80;;
4555;SDS011;2290;48.674;9.018;2023-11-19T08:34:53;1.67;;;0.93;;
4555;SDS011;2290;48.674;9.018;2023-11-19T08:37:21;0.90;;;0.80;;
4555;SDS011;2290;48.674;9.018;2023-11-19T08:39:50;1.20;;;0.90;;
4555;SDS011;2290;48.674;9.018;2023-11-19T08:42:16;1.00;;;0.87;;
4555;SDS011;2290;48.674;9.018;2023-11-19T08:44:42;1.20;;;0.90;;
4555;SDS011;2290;48.674;9.018;2023-11-19T08:47:11;1.00;;;0.83;;
4555;SDS011;2290;48.674;9.018;2023-11-19T08:49:37;1.00;;;0.90;;
4555;SDS011;2290;48.674;9.018;2023-11-19T08:52:04;1.00;;;0.90;;
4555;SDS011;2290;48.674;9.018;2023-11-19T08:54:35;1.40;;;0.97;;
4555;SDS011;2290;48.674;9.018;2023-11-19T08:57:01;1.00;;;0.90;;
4555;SDS011;2290;48.674;9.018;2023-11-19T08:59:29;1.27;;;0.83;;
4555;SDS011;2290;48.674;9.018;2023-11-19T09:01:55;1.00;;;0.90;;
4555;SDS011;2290;48.674;9.018;2023-11-19T09:04:20;1.63;;;0.80;;
4555;SDS011;2290;48.674;9.018;2023-11-19T09:06:47;1.40;;;1.20;;
4555;SDS011;2290;48.674;9.018;2023-11-19T09:09:13;1.00;;;0.83;;
4555;SDS011;2290;48.674;9.018;2023-11-19T09:11:39;1.10;;;1.00;;
4555;SDS011;2290;48.674;9.018;2023-11-19T09:14:04;3.70;;;1.87;;
4555;SDS011;2290;48.674;9.018;2023-11-19T09:16:30;4.47;;;1.00;;
4555;SDS011;2290;48.674;9.018;2023-11-19T09:18:57;0.90;;;0.80;;
4555;SDS011;2290;48.674;9.018;2023-11-19T09:21:24;1.10;;;0.90;;
4555;SDS011;2290;48.674;9.018;2023-11-19T09:23:54;1.00;;;0.80;;
4555;SDS011;2290;48.674;9.018;2023-11-19T09:26:20;1.40;;;0.93;;
4555;SDS011;2290;48.674;9.018;2023-11-19T09:28:46;1.00;;;0.90;;
4555;SDS011;2290;48.674;9.018;2023-11-19T09:31:15;1.10;;;1.00;;
4555;SDS011;2290;48.674;9.018;2023-11-19T09:33:41;1.20;;;1.10;;
4555;SDS011;2290;48.674;9.018;2023-11-19T09:36:07;2.63;;;1.00;;
4555;SDS011;2290;48.674;9.018;2023-11-19T09:38:35;1.77;;;0.80;;
4555;SDS011;2290;48.674;9.018;2023-11-19T09:41:03;1.40;;;0.97;;
4555;SDS011;2290;48.674;9.018;2023-11-19T09:43:33;1.00;;;0.90;;
4555;SDS011;2290;48.674;9.018;2023-11-19T09:46:07;1.00;;;0.87;;
4555;SDS011;2290;48.674;9.018;2023-11-19T09:48:37;1.07;;;0.93;;
4555;SDS011;2290;48.674;9.018;2023-11-19T09:51:12;1.30;;;1.00;;
4555;SDS011;2290;48.674;9.018;2023-11-19T09:53:37;1.10;;;1.00;;
4555;SDS011;2290;48.674;9.018;2023-11-19T09:56:10;0.90;;;0.80;;
4555;SDS011;2290;48.674;9.018;2023-11-19T09:58:37;1.13;;;0.80;;
4555;SDS011;2290;48.674;9.018;2023-11-19T10:01:06;1.00;;;0.80;;
4555;SDS011;2290;48.674;9.018;2023-11-19T10:03:36;1.03;;;0.90;;
4555;SDS011;2290;48.674;9.018;2023-11-19T10:06:08;1.40;;;0.93;;
4555;SDS011;2290;48.674;9.018;2023-11-19T10:08:36;1.17;;;0.97;;
4555;SDS011;2290;48.674;9.018;2023-11-19T10:11:04;1.00;;;0.80;;
4555;SDS011;2290;48.674;9.018;2023-11-19T10:13:32;5.60;;;1.07;;
4555;SDS011;2290;48.674;9.018;2023-11-19T10:16:03;1.40;;;0.90;;
4555;SDS011;2290;48.674;9.018;2023-11-19T10:18:32;1.00;;;0.83;;
4555;SDS011;2290;48.674;9.018;2023-11-19T10:21:02;1.20;;;0.90;;
4555;SDS011;2290;48.674;9.018;2023-11-19T10:23:31;0.90;;;0.80;;
4555;SDS011;2290;48.674;9.018;2023-11-19T10:26:12;1.10;;;0.90;;
4555;SDS011;2290;48.674;9.018;2023-11-19T10:28:41;0.90;;;0.80;;
4555;SDS011;2290;48.674;9.018;2023-11-19T10:31:09;0.90;;;0.80;;
4555;SDS011;2290;48.674;9.018;2023-11-19T10:33:35;1.33;;;0.90;;
4555;SDS011;2290;48.674;9.018;2023-11-19T10:36:00;1.03;;;0.80;;
4555;SDS011;2290;48.674;9.018;2023-11-19T10:38:27;0.80;;;0.70;;
4555;SDS011;2290;48.674;9.018;2023-11-19T10:40:53;1.70;;;0.70;;
4555;SDS011;2290;48.674;9.018;2023-11-19T10:43:21;2.50;;;0.90;;
4555;SDS011;2290;48.674;9.018;2023-11-19T10:45:47;1.40;;;0.80;;
4555;SDS011;2290;48.674;9.018;2023-11-19T10:48:15;1.00;;;0.80;;
4555;SDS011;2290;48.674;9.018;2023-11-19T10:50:42;1.00;;;0.70;;
4555;SDS011;2290;48.674;9.018;2023-11-19T10:53:11;1.00;;;0.73;;
4555;SDS011;2290;48.674;9.018;2023-11-19T10:55:41;1.00;;;0.80;;
4555;SDS011;2290;48.674;9.018;2023-11-19T10:58:10;0.90;;;0.70;;
4555;SDS011;2290;48.674;9.018;2023-11-19T11:00:42;1.10;;;0.80;;
4555;SDS011;2290;48.674;9.018;2023-11-19T11:03:19;0.90;;;0.80;;
4555;SDS011;2290;48.674;9.018;2023-11-19T11:05:47;1.10;;;0.90;;
4555;SDS011;2290;48.674;9.018;2023-11-19T11:08:14;2.70;;;1.00;;
4555;SDS011;2290;48.674;9.018;2023-11-19T11:10:44;0.80;;;0.80;;
4555;SDS011;2290;48.674;9.018;2023-11-19T11:13:22;1.67;;;1.00;;
4555;SDS011;2290;48.674;9.018;2023-11-19T11:15:51;1.20;;;0.90;;
4555;SDS011;2290;48.674;9.018;2023-11-19T11:18:21;1.90;;;1.00;;
4555;SDS011;2290;48.674;9.018;2023-11-19T11:20:49;1.20;;;0.80;;
4555;SDS011;2290;48.674;9.018;2023-11-19T11:29:05;1.10;;;1.00;;
4555;SDS011;2290;48.674;9.018;2023-11-19T11:39:55;1.67;;;1.10;;
4555;SDS011;2290;48.674;9.018;2023-11-19T11:45:02;1.67;;;0.83;;
4555;SDS011;2290;48.674;9.018;2023-11-19T11:50:16;3.33;;;1.73;;
4555;SDS011;2290;48.674;9.018;2023-11-19T11:55:23;0.93;;;0.80;;
4555;SDS011;2290;48.674;9.018;2023-11-19T11:57:56;1.40;;;0.87;;
4555;SDS011;2290;48.674;9.018;2023-11-19T12:00:29;1.10;;;1.00;;
4555;SDS011;2290;48.674;9.018;2023-11-19T12:02:56;2.67;;;1.50;;
4555;SDS011;2290;48.674;9.018;2023-11-19T12:05:24;1.10;;;0.70;;
4555;SDS011;2290;48.674;9.018;2023-11-19T12:07:56;1.13;;;1.00;;
4555;SDS011;2290;48.674;9.018;2023-11-19T12:10:25;2.13;;;1.00;;
4555;SDS011;2290;48.674;9.018;2023-11-19T12:12:53;1.90;;;0.83;;
4555;SDS011;2290;48.674;9.018;2023-11-19T12:15:26;1.63;;;1.03;;
4555;SDS011;2290;48.674;9.018;2023-11-19T12:17:53;0.97;;;0.80;;
4555;SDS011;2290;48.674;9.018;2023-11-19T12:20:20;0.90;;;0.77;;
4555;SDS011;2290;48.674;9.018;2023-11-19T12:22:47;1.93;;;1.00;;
4555;SDS011;2290;48.674;9.018;2023-11-19T12:25:14;1.03;;;0.80;;
4555;SDS011;2290;48.674;9.018;2023-11-19T12:27:48;1.30;;;0.80;;
4555;SDS011;2290;48.674;9.018;2023-11-19T12:30:24;1.10;;;0.80;;
4555;SDS011;2290;48.674;9.018;2023-11-19T12:32:50;0.83;;;0.80;;
4555;SDS011;2290;48.674;9.018;2023-11-19T12:35:18;0.90;;;0.80;;
4555;SDS011;2290;48.674;9.018;2023-11-19T12:37:47;1.10;;;0.70;;
4555;SDS011;2290;48.674;9.018;2023-11-19T12:40:17;1.20;;;0.80;;
4555;SDS011;2290;48.674;9.018;2023-11-19T12:42:53;0.97;;;0.73;;
4555;SDS011;2290;48.674;9.018;2023-11-19T12:45:21;2.20;;;0.90;;
4555;SDS011;2290;48.674;9.018;2023-11-19T12:47:49;1.40;;;0.80;;
4555;SDS011;2290;48.674;9.018;2023-11-19T12:50:18;1.63;;;1.17;;
4555;SDS011;2290;48.674;9.018;2023-11-19T12:53:06;1.80;;;1.10;;
4555;SDS011;2290;48.674;9.018;2023-11-19T12:55:31;6.07;;;1.03;;
4555;SDS011;2290;48.674;9.018;2023-11-19T12:57:57;3.30;;;1.60;;
4555;SDS011;2290;48.674;9.018;2023-11-19T13:00:25;1.53;;;0.80;;
4555;SDS011;2290;48.674;9.018;2023-11-19T13:02:55;1.13;;;0.80;;
4555;SDS011;2290;48.674;9.018;2023-11-19T13:05:26;1.80;;;0.90;;
4555;SDS011;2290;48.674;9.018;2023-11-19T13:08:02;1.80;;;0.80;;
4555;SDS011;2290;48.674;9.018;2023-11-19T13:10:29;0.90;;;0.80;;
4555;SDS011;2290;48.674;9.018;2023-11-19T13:13:06;1.13;;;0.80;;
4555;SDS011;2290;48.674;9.018;2023-11-19T13:15:37;1.30;;;0.87;;
4555;SDS011;2290;48.674;9.018;2023-11-19T13:18:03;1.60;;;0.77;;
4555;SDS011;2290;48.674;9.018;2023-11-19T13:20:32;0.90;;;0.80;;
4555;SDS011;2290;48.674;9.018;2023-11-19T13:22:59;1.20;;;1.00;;
4555;SDS011;2290;48.674;9.018;2023-11-19T13:25:30;1.83;;;0.83;;
4555;SDS011;2290;48.674;9.018;2023-11-19T13:27:59;1.10;;;0.90;;
4555;SDS011;2290;48.674;9.018;2023-11-19T13:30:26;1.63;;;0.90;;
4555;SDS011;2290;48.674;9.018;2023-11-19T13:32:52;2.43;;;0.90;;
4555;SDS011;2290;48.674;9.018;2023-11-19T13:35:20;2.20;;;1.53;;
4555;SDS011;2290;48.674;9.018;2023-11-19T13:37:50;1.00;;;0.90;;
4555;SDS011;2290;48.674;9.018;2023-11-19T13:40:16;1.03;;;0.80;;
4555;SDS011;2290;48.674;9.018;2023-11-19T13:42:42;1.37;;;0.90;;
4555;SDS011;2290;48.674;9.018;2023-11-19T13:47:36;2.13;;;1.10;;
4555;SDS011;2290;48.674;9.018;2023-11-19T13:50:06;3.13;;;1.10;;
4555;SDS011;2290;48.674;9.018;2023-11-19T13:52:37;2.03;;;0.90;;
4555;SDS011;2290;48.674;9.018;2023-11-19T13:55:05;0.90;;;0.80;;
4555;SDS011;2290;48.674;9.018;2023-11-19T13:57:43;1.80;;;0.87;;
4555;SDS011;2290;48.674;9.018;2023-11-19T14:00:10;2.93;;;0.93;;
4555;SDS011;2290;48.674;9.018;2023-11-19T14:02:42;2.07;;;0.90;;
4555;SDS011;2290;48.674;9.018;2023-11-19T14:05:09;2.23;;;0.93;;
4555;SDS011;2290;48.674;9.018;2023-11-19T14:07:38;1.67;;;0.90;;
4555;SDS011;2290;48.674;9.018;2023-11-19T14:10:04;1.20;;;0.83;;
4555;SDS011;2290;48.674;9.018;2023-11-19T14:12:31;1.93;;;1.03;;
4555;SDS011;2290;48.674;9.018;2023-11-19T14:15:17;1.00;;;0.90;;
4555;SDS011;2290;48.674;9.018;2023-11-19T14:17:43;1.20;;;0.90;;
4555;SDS011;2290;48.674;9.018;2023-11-19T14:20:08;1.93;;;1.00;;
4555;SDS011;2290;48.674;9.018;2023-11-19T14:22:42;1.10;;;0.87;;
4555;SDS011;2290;48.674;9.018;2023-11-19T14:25:09;1.00;;;0.80;;
4555;SDS011;2290;48.674;9.018;2023-11-19T14:27:39;1.20;;;0.90;;
4555;SDS011;2290;48.674;9.018;2023-11-19T14:30:06;1.30;;;1.00;;
4555;SDS011;2290;48.674;9.018;2023-11-19T14:32:35;1.20;;;1.00;;
4555;SDS011;2290;48.674;9.018;2023-11-19T14:35:06;1.30;;;0.90;;
4555;SDS011;2290;48.674;9.018;2023-11-19T14:37:33;1.97;;;1.00;;
4555;SDS011;2290;48.674;9.018;2023-11-19T14:40:00;2.30;;;1.23;;
4555;SDS011;2290;48.674;9.018;2023-11-19T14:42:29;1.10;;;0.90;;
4555;SDS011;2290;48.674;9.018;2023-11-19T14:44:55;1.80;;;0.97;;
4555;SDS011;2290;48.674;9.018;2023-11-19T14:47:22;1.13;;;0.80;;
4555;SDS011;2290;48.674;9.018;2023-11-19T14:49:48;1.10;;;0.90;;
4555;SDS011;2290;48.674;9.018;2023-11-19T14:52:14;6.10;;;1.87;;
4555;SDS011;2290;48.674;9.018;2023-11-19T14:54:41;1.10;;;0.90;;
4555;SDS011;2290;48.674;9.018;2023-11-19T14:57:07;2.93;;;1.30;;
4555;SDS011;2290;48.674;9.018;2023-11-19T14:59:36;1.03;;;0.80;;
4555;SDS011;2290;48.674;9.018;2023-11-19T15:02:05;2.23;;;1.53;;
4555;SDS011;2290;48.674;9.018;2023-11-19T15:04:31;1.60;;;1.10;;
4555;SDS011;2290;48.674;9.018;2023-11-19T15:06:59;1.13;;;0.90;;
4555;SDS011;2290;48.674;9.018;2023-11-19T15:09:26;2.30;;;1.10;;
4555;SDS011;2290;48.674;9.018;2023-11-19T15:11:55;1.27;;;1.17;;
4555;SDS011;2290;48.674;9.018;2023-11-19T15:14:21;1.43;;;0.97;;
4555;SDS011;2290;48.674;9.018;2023-11-19T15:16:46;0.90;;;0.80;;
4555;SDS011;2290;48.674;9.018;2023-11-19T15:19:16;3.83;;;1.10;;
4555;SDS011;2290;48.674;9.018;2023-11-19T15:21:44;1.23;;;1.00;;
4555;SDS011;2290;48.674;9.018;2023-11-19T15:24:11;1.43;;;1.10;;
4555;SDS011;2290;48.674;9.018;2023-11-19T15:26:37;1.20;;;0.93;;
4555;SDS011;2290;48.674;9.018;2023-11-19T15:29:03;1.23;;;0.97;;
4555;SDS011;2290;48.674;9.018;2023-11-19T15:31:29;1.97;;;0.90;;
4555;SDS011;2290;48.674;9.018;2023-11-19T15:33:57;1.30;;;1.00;;
4555;SDS011;2290;48.674;9.018;2023-11-19T15:36:23;1.10;;;1.00;;
4555;SDS011;2290;48.674;9.018;2023-11-19T15:38:52;1.30;;;1.03;;
4555;SDS011;2290;48.674;9.018;2023-11-19T15:41:17;1.10;;;0.90;;